Página principal
METAR-TAF:

METAR-TAF

Aeroportos :

Tarawa, Kiribati

Aeroporto Internacional de Bonriki

latitude: 01-21N, longitude: 172-55E, altura: 2 m

Observação actual do tempo

O boletim foi feito há 4 horas e 30 minutos, às 00:00 UTC
Vento 9 kt de nor-nordeste
Temperatura 30°C
Humidade 75%
Pressão 1009 hPa
Visibilidade 10 km ou mais
Poucas nuvensa uma altura de 1800 ft, Cumulus congestus.
Nuvens dispersasa uma altura de 2000 ft

METAR: NGTA 220000Z 03009KT 9999 FEW018TCU SCT020 30/25 Q1009

Hora: 18:30 (04:30 UTC)

Previsão

O boletim foi feito há 5 horas e 15 minutos, às 23:15 UTC
Previsão válida de 22 às 00 UTC a 22 às 24 UTC
Vento 10 kt de este
Visibilidade 10 km ou mais
Nuvens dispersasa uma altura de 1500 ft
Probabilidade 30% :
Temporariamente
entre 2 e UTC
Visibilidade: 5000 m
Poucas nuvensa uma altura de 1800 ft, Cumulonimbus.
trovoada, chuva

TAF: NGTA 212315Z 2200/2224 09010KT 9999 SCT015 SCT 040 PROB30 TEMPO 2 200/2206 5000 TSRA FEW018CB

Observações e previsões do tempo de mais de 4000 aeroportos (mensagens METAR e TAF).

As estações disponíveis são os pontos amarelos e vermelhos sobre o mapa.

Mova o rato sobre o mapa para ver o nome da estação.

Depois clique no ponto para visualizar as observações e previsões meteorológicas.

Para alterar o mapa : clique nos botões verdes com uma cruz preta para aumentar o zoom; no botão verde com uma pitada de zoom; ou nas setas verdes para mapas adjacentes.


METAR-TAF: